Novo Aripuana, Brazil
Current Conditions -  °F | °C
As of 6:00 PM on Friday 19 Dec 2014 (Local Time) from SBMY Reporting Station
Thunderstorm Thunderstorm  
Wind Chill: 75°   Ceiling: 10000
Heat Index: 75°   Visibility: 6mi
Dew Point: 73°   Wind: 0mph
Humidity: 94%   Direction: NA
Pressure: 29.8"   Gusts: NA
Location:  5.12°S, 60.38°W
Report Text: SBMY 192200Z 00000KT 9999 -TSRA FEW025CB OVC100 24/23 Q1009
Loading
Personal Weather Stations






























Interactive Weather Map New forecast layout! Learn more

10-Day Weather Forecast

Advertisements
Track Severe Weather on mobile